createdAt,value
2022-08-25T00:01:53.036Z,4.05
2022-08-25T00:04:22.350Z,7.17
2022-08-25T00:06:49.548Z,6.68
2022-08-25T00:09:25.427Z,5.00
2022-08-25T00:11:53.181Z,8.50
2022-08-25T00:14:26.341Z,3.72
2022-08-25T00:16:56.106Z,4.88
2022-08-25T00:19:29.474Z,3.45
2022-08-25T00:21:56.463Z,4.60
2022-08-25T00:24:24.754Z,3.35
2022-08-25T00:26:55.133Z,6.13
2022-08-25T00:29:23.490Z,7.20
2022-08-25T00:31:50.063Z,4.57
2022-08-25T00:34:21.043Z,9.05
2022-08-25T00:36:48.267Z,4.07
2022-08-25T00:39:14.823Z,3.92
2022-08-25T00:41:42.906Z,5.53
2022-08-25T00:44:12.481Z,5.07
2022-08-25T00:46:43.194Z,7.53
2022-08-25T00:49:24.680Z,10.50
2022-08-25T00:51:57.473Z,6.40
2022-08-25T00:54:33.935Z,9.35
2022-08-25T00:57:01.754Z,7.78
2022-08-25T00:59:29.178Z,10.48
2022-08-25T01:01:56.614Z,6.93
2022-08-25T01:04:23.844Z,6.15
2022-08-25T01:06:50.413Z,10.38
2022-08-25T01:09:18.811Z,5.18
2022-08-25T01:11:47.226Z,7.43
2022-08-25T01:14:17.167Z,6.45
2022-08-25T01:16:43.956Z,8.13
2022-08-25T01:19:15.436Z,4.00
2022-08-25T01:21:48.954Z,4.95
2022-08-25T01:24:26.233Z,3.45
2022-08-25T01:26:53.029Z,4.00
2022-08-25T01:29:22.600Z,4.43
2022-08-25T01:31:51.148Z,4.93
2022-08-25T01:34:20.271Z,5.38
2022-08-25T01:36:46.867Z,5.15
2022-08-25T01:39:13.912Z,4.15
2022-08-25T01:41:48.615Z,3.63
2022-08-25T01:44:18.514Z,4.45
2022-08-25T01:46:45.220Z,4.90
2022-08-25T01:49:12.085Z,4.55
2022-08-25T01:51:46.892Z,6.65
2022-08-25T01:54:13.509Z,5.32
2022-08-25T01:56:40.140Z,4.75
2022-08-25T01:59:06.712Z,3.88
2022-08-25T02:01:33.744Z,3.60
2022-08-25T02:04:00.402Z,4.35
2022-08-25T02:06:32.226Z,5.15
2022-08-25T02:09:06.752Z,4.07
2022-08-25T02:11:35.501Z,6.25
2022-08-25T02:14:02.026Z,3.65
2022-08-25T02:16:32.484Z,4.00
2022-08-25T02:18:59.685Z,4.18
2022-08-25T02:21:26.887Z,12.32
2022-08-25T02:23:53.955Z,7.28
2022-08-25T02:26:21.137Z,3.25
2022-08-25T02:28:49.568Z,5.97
2022-08-25T02:31:17.381Z,4.43
2022-08-25T02:33:44.622Z,5.72
2022-08-25T02:36:11.370Z,5.43
2022-08-25T02:38:38.456Z,3.92
2022-08-25T02:41:12.596Z,5.60
2022-08-25T02:43:41.549Z,4.35
2022-08-25T02:46:09.631Z,4.05
2022-08-25T02:48:36.818Z,7.63
2022-08-25T02:51:03.775Z,4.40
2022-08-25T02:53:30.518Z,5.28
2022-08-25T02:55:57.191Z,5.15
2022-08-25T02:58:23.820Z,3.92
2022-08-25T03:00:50.470Z,4.30
2022-08-25T03:03:17.481Z,4.00
2022-08-25T03:05:44.022Z,4.88
2022-08-25T03:08:11.635Z,3.55
2022-08-25T03:10:38.979Z,3.95
2022-08-25T03:13:05.565Z,3.30
2022-08-25T03:15:32.517Z,4.63
2022-08-25T03:17:59.999Z,3.92
2022-08-25T03:20:27.971Z,5.35
2022-08-25T03:22:54.543Z,3.83
2022-08-25T03:25:40.128Z,3.95
2022-08-25T03:28:07.922Z,3.78
2022-08-25T03:30:35.353Z,4.03
2022-08-25T03:33:02.260Z,2.85
2022-08-25T03:35:28.849Z,2.63
2022-08-25T03:37:58.437Z,4.97
2022-08-25T03:40:25.578Z,2.83
2022-08-25T03:42:52.494Z,3.78
2022-08-25T03:45:19.303Z,5.07
2022-08-25T03:47:48.989Z,3.88
2022-08-25T03:50:17.849Z,4.05
2022-08-25T03:52:44.784Z,3.67
2022-08-25T03:55:13.827Z,3.80
2022-08-25T03:57:40.640Z,4.50
2022-08-25T04:00:09.934Z,3.90
2022-08-25T04:02:36.512Z,3.00
2022-08-25T04:05:04.318Z,3.00
2022-08-25T04:07:30.838Z,3.42
2022-08-25T04:09:57.377Z,2.83
2022-08-25T04:12:24.204Z,2.85
2022-08-25T04:14:50.911Z,3.63
2022-08-25T04:17:17.949Z,4.05
2022-08-25T04:19:44.872Z,3.05
2022-08-25T04:22:11.421Z,3.80
2022-08-25T04:24:40.199Z,3.60
2022-08-25T04:27:06.840Z,3.00
2022-08-25T04:29:33.633Z,4.72
2022-08-25T04:32:00.268Z,3.08
2022-08-25T04:34:30.689Z,4.13
2022-08-25T04:36:59.726Z,3.05
2022-08-25T04:39:29.925Z,3.92
2022-08-25T04:41:56.614Z,3.10
2022-08-25T04:44:23.198Z,3.90
2022-08-25T04:46:50.123Z,4.35
2022-08-25T04:49:16.670Z,6.45
2022-08-25T04:51:43.778Z,3.45
2022-08-25T04:54:13.654Z,4.50
2022-08-25T04:56:41.379Z,4.30
2022-08-25T04:59:11.687Z,3.25
2022-08-25T05:01:39.616Z,3.50
2022-08-25T05:04:14.693Z,3.53
2022-08-25T05:06:55.384Z,3.88
2022-08-25T05:09:21.913Z,5.20
2022-08-25T05:11:48.742Z,4.07
2022-08-25T05:14:18.243Z,4.68
2022-08-25T05:16:45.233Z,4.28
2022-08-25T05:19:11.849Z,3.33
2022-08-25T05:21:38.663Z,10.30
2022-08-25T05:24:05.642Z,7.43
2022-08-25T05:26:34.550Z,7.65
2022-08-25T05:29:03.870Z,5.22
2022-08-25T05:31:31.386Z,8.25
2022-08-25T05:33:58.731Z,9.70
2022-08-25T05:36:27.519Z,5.65
2022-08-25T05:38:54.372Z,4.80
2022-08-25T05:41:25.580Z,7.82
2022-08-25T05:43:52.121Z,7.18
2022-08-25T05:46:20.178Z,5.95
2022-08-25T05:48:47.128Z,8.02
2022-08-25T05:51:15.092Z,8.50
2022-08-25T05:53:44.069Z,5.60
2022-08-25T05:56:11.425Z,7.85
2022-08-25T05:58:38.061Z,5.88
2022-08-25T06:01:23.494Z,4.65
2022-08-25T06:03:54.389Z,7.43
2022-08-25T06:06:23.172Z,8.57
2022-08-25T06:08:49.908Z,8.23
2022-08-25T06:11:16.858Z,6.30
2022-08-25T06:13:43.647Z,7.65
2022-08-25T06:16:10.348Z,7.13
2022-08-25T06:18:36.986Z,4.00
2022-08-25T06:21:14.423Z,6.75
2022-08-25T06:23:41.385Z,7.70
2022-08-25T06:26:20.591Z,9.50
2022-08-25T06:28:49.511Z,6.05
2022-08-25T06:31:16.216Z,7.50
2022-08-25T06:33:44.142Z,5.20
2022-08-25T06:36:11.071Z,12.48
2022-08-25T06:38:37.739Z,8.23
2022-08-25T06:41:06.679Z,4.90
2022-08-25T06:43:34.531Z,5.90
2022-08-25T06:46:15.580Z,6.28
2022-08-25T06:48:42.518Z,10.73
2022-08-25T06:51:14.134Z,5.75
2022-08-25T06:53:41.290Z,5.65
2022-08-25T06:56:08.470Z,7.57
2022-08-25T06:58:35.852Z,7.18
2022-08-25T07:01:19.699Z,8.00
2022-08-25T07:03:47.604Z,10.38
2022-08-25T07:06:18.450Z,7.10
2022-08-25T07:08:46.430Z,6.82
2022-08-25T07:11:16.208Z,7.38
2022-08-25T07:13:43.086Z,5.82
2022-08-25T07:16:11.435Z,6.32
2022-08-25T07:18:38.781Z,4.82
2022-08-25T07:21:08.881Z,8.00
2022-08-25T07:23:36.353Z,6.90
2022-08-25T07:26:36.852Z,8.90
2022-08-25T07:29:12.137Z,9.82
2022-08-25T07:31:39.686Z,7.07
2022-08-25T07:34:26.042Z,11.00
2022-08-25T07:36:53.811Z,6.15
2022-08-25T07:39:21.949Z,8.30
2022-08-25T07:41:51.995Z,5.80
2022-08-25T07:44:20.672Z,9.27
2022-08-25T07:46:47.396Z,6.75
2022-08-25T07:49:16.628Z,6.50
2022-08-25T07:52:04.086Z,7.88
2022-08-25T07:54:34.623Z,4.88
2022-08-25T07:57:03.417Z,8.82
2022-08-25T07:59:31.039Z,8.73
2022-08-25T08:02:08.425Z,9.25
2022-08-25T08:04:37.661Z,5.97
2022-08-25T08:07:05.284Z,6.85
2022-08-25T08:09:38.567Z,7.25
2022-08-25T08:12:05.983Z,7.30
2022-08-25T08:14:32.562Z,6.35
2022-08-25T08:16:59.728Z,6.85
2022-08-25T08:19:26.399Z,9.25
2022-08-25T08:21:52.946Z,14.20
2022-08-25T08:24:40.786Z,6.10
2022-08-25T08:27:08.514Z,6.35
2022-08-25T08:29:36.025Z,7.25
2022-08-25T08:32:04.395Z,8.45
2022-08-25T08:34:33.143Z,6.22
2022-08-25T08:37:00.538Z,5.10
2022-08-25T08:39:28.502Z,6.50
2022-08-25T08:42:19.405Z,7.38
2022-08-25T08:44:45.964Z,9.63
2022-08-25T08:47:43.491Z,5.10
2022-08-25T08:50:32.870Z,8.07
2022-08-25T08:53:34.078Z,6.15
2022-08-25T08:56:14.368Z,8.43
2022-08-25T08:58:52.469Z,7.18
2022-08-25T09:01:32.353Z,5.68
2022-08-25T09:04:35.107Z,10.43
2022-08-25T09:07:10.053Z,5.32
2022-08-25T09:09:38.573Z,8.25
2022-08-25T09:12:29.105Z,5.85
2022-08-25T09:15:45.936Z,9.48
2022-08-25T09:18:51.497Z,8.45
2022-08-25T09:21:39.798Z,5.50
2022-08-25T09:24:14.471Z,7.10
2022-08-25T09:26:54.047Z,8.38
2022-08-25T09:29:27.092Z,9.85
2022-08-25T09:31:59.628Z,6.50
2022-08-25T09:34:32.696Z,10.20
2022-08-25T09:37:00.646Z,8.15
2022-08-25T09:39:28.042Z,5.72
2022-08-25T09:42:00.520Z,6.35
2022-08-25T09:44:44.759Z,5.75
2022-08-25T09:47:17.947Z,5.68
2022-08-25T09:49:47.811Z,7.38
2022-08-25T09:52:32.067Z,6.40
2022-08-25T09:55:21.590Z,5.88
2022-08-25T09:57:53.016Z,7.53
2022-08-25T10:00:23.222Z,7.43
2022-08-25T10:03:13.526Z,6.28
2022-08-25T10:05:59.975Z,6.80
2022-08-25T10:08:32.638Z,4.13
2022-08-25T10:11:01.855Z,6.50
2022-08-25T10:14:04.674Z,4.88
2022-08-25T10:16:36.266Z,4.80
2022-08-25T10:19:23.540Z,4.82
2022-08-25T10:22:10.811Z,8.95
2022-08-25T10:24:41.028Z,7.32
2022-08-25T10:27:16.464Z,3.47
2022-08-25T10:30:04.490Z,4.63
2022-08-25T10:32:50.566Z,3.50
2022-08-25T10:35:28.978Z,4.88
2022-08-25T10:37:58.251Z,4.20
2022-08-25T10:40:37.265Z,5.95
2022-08-25T10:43:17.307Z,3.60
2022-08-25T10:45:51.354Z,7.35
2022-08-25T10:49:07.116Z,3.42
2022-08-25T10:51:40.102Z,5.63
2022-08-25T10:54:12.911Z,5.50
2022-08-25T10:56:43.437Z,6.53
2022-08-25T10:59:28.472Z,6.88
2022-08-25T11:02:38.999Z,6.45
2022-08-25T11:05:11.110Z,5.63
2022-08-25T11:07:45.910Z,6.70
2022-08-25T11:10:26.141Z,4.13
2022-08-25T11:13:03.863Z,4.15
2022-08-25T11:16:00.183Z,3.45
2022-08-25T11:18:32.903Z,4.95
2022-08-25T11:21:12.903Z,4.55
2022-08-25T11:24:07.029Z,4.45
2022-08-25T11:26:37.925Z,7.90
2022-08-25T11:29:14.650Z,2.90
2022-08-25T11:31:54.042Z,2.58
2022-08-25T11:34:22.458Z,2.08
2022-08-25T11:36:57.680Z,4.15
2022-08-25T11:39:41.127Z,3.03
2022-08-25T11:42:26.194Z,4.65
2022-08-25T11:45:29.193Z,2.97
2022-08-25T11:48:13.366Z,2.83
2022-08-25T11:50:57.746Z,4.07
2022-08-25T11:53:28.384Z,3.97
2022-08-25T11:56:03.115Z,4.07
2022-08-25T11:58:36.925Z,6.97
2022-08-25T12:01:06.312Z,3.88
2022-08-25T12:03:32.908Z,2.92
2022-08-25T12:06:25.237Z,5.72
2022-08-25T12:08:57.654Z,3.60
2022-08-25T12:11:48.238Z,4.38
2022-08-25T12:14:24.601Z,3.10
2022-08-25T12:16:55.371Z,5.30
2022-08-25T12:19:58.970Z,3.97
2022-08-25T12:22:27.093Z,2.70
2022-08-25T12:24:59.699Z,4.30
2022-08-25T12:27:38.815Z,4.00
2022-08-25T12:30:26.431Z,4.95
2022-08-25T12:33:09.447Z,3.15
2022-08-25T12:36:11.298Z,3.25
2022-08-25T12:38:52.135Z,3.67
2022-08-25T12:41:26.349Z,2.47
2022-08-25T12:44:08.913Z,4.18
2022-08-25T12:46:39.565Z,4.32
2022-08-25T12:49:33.491Z,3.97
2022-08-25T12:52:06.829Z,2.58
2022-08-25T12:54:49.042Z,5.28
2022-08-25T12:57:18.764Z,2.90
2022-08-25T12:59:56.076Z,5.28
2022-08-25T13:02:53.652Z,4.00
2022-08-25T13:05:42.509Z,1.92
2022-08-25T13:08:24.329Z,3.03
2022-08-25T13:11:09.663Z,4.38
2022-08-25T13:13:58.111Z,4.85
2022-08-25T13:16:30.214Z,6.00
2022-08-25T13:19:01.843Z,2.95
2022-08-25T13:21:30.928Z,6.68
2022-08-25T13:24:05.950Z,3.10
2022-08-25T13:26:37.609Z,2.60
2022-08-25T13:29:22.946Z,3.08
2022-08-25T13:31:58.614Z,3.90
2022-08-25T13:34:35.007Z,4.10
2022-08-25T13:37:30.475Z,4.65
2022-08-25T13:40:24.784Z,2.78
2022-08-25T13:42:59.892Z,4.15
2022-08-25T13:45:42.504Z,2.15
2022-08-25T13:48:21.223Z,3.13
2022-08-25T13:50:56.526Z,4.35
2022-08-25T13:53:36.098Z,2.78
2022-08-25T13:56:03.981Z,2.33
2022-08-25T13:58:38.950Z,3.92
2022-08-25T14:01:49.295Z,2.78
2022-08-25T14:04:24.548Z,2.60
2022-08-25T14:07:21.000Z,1.67
2022-08-25T14:09:54.778Z,3.67
2022-08-25T14:12:33.418Z,3.38
2022-08-25T14:15:04.884Z,3.95
2022-08-25T14:17:38.258Z,4.13
2022-08-25T14:20:17.519Z,3.35
2022-08-25T14:22:44.102Z,4.70
2022-08-25T14:25:11.358Z,4.68
2022-08-25T14:28:03.715Z,9.48
2022-08-25T14:30:30.165Z,5.55
2022-08-25T14:32:57.125Z,5.22
2022-08-25T14:35:23.731Z,4.93
2022-08-25T14:37:50.409Z,5.22
2022-08-25T14:40:20.040Z,3.97
2022-08-25T14:42:47.836Z,3.30
2022-08-25T14:45:19.117Z,3.58
2022-08-25T14:47:49.666Z,3.83
2022-08-25T14:50:20.104Z,2.78
2022-08-25T14:52:51.903Z,5.00
2022-08-25T14:55:21.121Z,4.22
2022-08-25T14:57:59.350Z,1.90
2022-08-25T15:00:26.253Z,4.35
2022-08-25T15:02:53.548Z,5.82
2022-08-25T15:05:28.495Z,4.22
2022-08-25T15:08:14.215Z,2.88
2022-08-25T15:10:42.084Z,5.95
2022-08-25T15:13:10.643Z,4.38
2022-08-25T15:15:52.605Z,2.63
2022-08-25T15:18:21.683Z,4.07
2022-08-25T15:20:49.949Z,2.50
2022-08-25T15:23:18.689Z,2.38
2022-08-25T15:25:48.084Z,3.78
2022-08-25T15:28:17.292Z,2.47
2022-08-25T15:30:45.642Z,5.22
2022-08-25T15:33:13.568Z,2.67
2022-08-25T15:35:41.140Z,4.13
2022-08-25T15:38:08.510Z,3.17
2022-08-25T15:40:37.601Z,3.63
2022-08-25T15:43:05.309Z,5.72
2022-08-25T15:45:32.251Z,4.10
2022-08-25T15:47:59.661Z,3.35
2022-08-25T15:50:26.951Z,2.67
2022-08-25T15:52:53.571Z,2.42
2022-08-25T15:55:20.933Z,3.25
2022-08-25T15:57:49.717Z,2.60
2022-08-25T16:00:18.123Z,2.88
2022-08-25T16:02:45.392Z,5.20
2022-08-25T16:05:13.771Z,4.85
2022-08-25T16:07:43.190Z,2.92
2022-08-25T16:10:12.576Z,3.85
2022-08-25T16:12:40.089Z,6.35
2022-08-25T16:15:10.148Z,5.35
2022-08-25T16:17:40.545Z,5.20
2022-08-25T16:20:08.055Z,2.65
2022-08-25T16:22:40.938Z,3.72
2022-08-25T16:25:08.029Z,4.30
2022-08-25T16:27:38.914Z,2.58
2022-08-25T16:30:08.697Z,3.30
2022-08-25T16:32:35.695Z,3.95
2022-08-25T16:35:03.422Z,5.53
2022-08-25T16:37:30.201Z,4.00
2022-08-25T16:39:57.476Z,4.30
2022-08-25T16:42:24.360Z,5.13
2022-08-25T16:44:53.915Z,3.38
2022-08-25T16:47:24.985Z,3.78
2022-08-25T16:49:51.982Z,1.77
2022-08-25T16:52:38.251Z,3.42
2022-08-25T16:55:13.810Z,2.58
2022-08-25T16:57:44.191Z,2.92
2022-08-25T17:00:13.804Z,3.25
2022-08-25T17:02:41.624Z,3.05
2022-08-25T17:05:10.167Z,3.63
2022-08-25T17:07:37.389Z,3.03
2022-08-25T17:10:05.369Z,4.90
2022-08-25T17:12:35.906Z,2.33
2022-08-25T17:15:02.714Z,2.53
2022-08-25T17:17:36.017Z,2.33
2022-08-25T17:20:05.682Z,2.75
2022-08-25T17:22:32.446Z,4.75
2022-08-25T17:25:01.192Z,3.28
2022-08-25T17:27:28.381Z,4.47
2022-08-25T17:29:57.460Z,4.32
2022-08-25T17:32:28.957Z,4.07
2022-08-25T17:34:57.455Z,4.07
2022-08-25T17:37:24.624Z,6.35
2022-08-25T17:39:57.465Z,4.57
2022-08-25T17:42:30.322Z,6.78
2022-08-25T17:44:57.957Z,7.38
2022-08-25T17:47:24.857Z,7.93
2022-08-25T17:49:55.236Z,5.43
2022-08-25T17:52:25.396Z,5.43
2022-08-25T17:54:54.914Z,4.47
2022-08-25T17:57:26.650Z,6.15
2022-08-25T17:59:56.601Z,4.97
2022-08-25T18:02:23.854Z,4.10
2022-08-25T18:04:57.733Z,5.43
2022-08-25T18:07:25.314Z,4.00
2022-08-25T18:09:54.073Z,4.68
2022-08-25T18:12:21.626Z,6.07
2022-08-25T18:14:54.002Z,4.75
2022-08-25T18:17:22.026Z,7.35
2022-08-25T18:19:49.849Z,4.60
2022-08-25T18:22:17.144Z,4.50
2022-08-25T18:24:44.537Z,4.97
2022-08-25T18:27:14.747Z,5.25
2022-08-25T18:29:47.313Z,5.82
2022-08-25T18:32:14.111Z,4.95
2022-08-25T18:34:40.772Z,5.50
2022-08-25T18:37:25.889Z,4.40
2022-08-25T18:40:13.494Z,5.47
2022-08-25T18:42:40.906Z,5.30
2022-08-25T18:45:08.970Z,5.15
2022-08-25T18:47:39.810Z,6.15
2022-08-25T18:50:10.263Z,4.43
2022-08-25T18:52:37.145Z,6.93
2022-08-25T18:55:04.301Z,6.85
2022-08-25T18:57:31.441Z,6.47
2022-08-25T18:59:58.111Z,3.88
2022-08-25T19:02:24.794Z,4.15
2022-08-25T19:04:52.754Z,12.57
2022-08-25T19:07:19.694Z,7.28
2022-08-25T19:09:46.452Z,4.43
2022-08-25T19:12:22.478Z,9.30
2022-08-25T19:14:50.448Z,6.60
2022-08-25T19:17:17.294Z,5.88
2022-08-25T19:19:44.721Z,9.88
2022-08-25T19:22:31.679Z,11.60
2022-08-25T19:24:58.940Z,7.10
2022-08-25T19:27:25.484Z,10.88
2022-08-25T19:29:52.313Z,8.50
2022-08-25T19:32:19.312Z,10.30
2022-08-25T19:34:47.747Z,9.25
2022-08-25T19:37:18.407Z,10.90
2022-08-25T19:39:52.975Z,13.35
2022-08-25T19:42:34.979Z,7.88
2022-08-25T19:45:08.678Z,6.20
2022-08-25T19:47:35.446Z,14.90
2022-08-25T19:50:08.520Z,13.52
2022-08-25T19:52:37.897Z,10.88
2022-08-25T19:55:05.013Z,8.85
2022-08-25T19:57:42.502Z,16.73
2022-08-25T20:00:23.016Z,12.07
2022-08-25T20:02:51.060Z,19.35
2022-08-25T20:05:23.909Z,25.27
2022-08-25T20:07:52.658Z,26.92
2022-08-25T20:10:22.004Z,14.55
2022-08-25T20:12:48.638Z,21.88
2022-08-25T20:15:16.532Z,29.80
2022-08-25T20:17:43.970Z,12.27
2022-08-25T20:20:15.120Z,23.45
2022-08-25T20:22:42.867Z,23.58
2022-08-25T20:25:23.242Z,31.75
2022-08-25T20:27:54.732Z,29.10
2022-08-25T20:30:27.921Z,20.92
2022-08-25T20:32:56.490Z,12.23
2022-08-25T20:35:26.637Z,13.07
2022-08-25T20:37:55.135Z,9.85
2022-08-25T20:40:25.743Z,18.38
2022-08-25T20:42:56.371Z,18.67
2022-08-25T20:45:23.486Z,19.88
2022-08-25T20:47:50.280Z,17.45
2022-08-25T20:50:18.347Z,16.58
2022-08-25T20:52:44.973Z,24.55
2022-08-25T20:55:12.516Z,18.77
2022-08-25T20:57:39.744Z,12.90
2022-08-25T21:00:07.816Z,13.32
2022-08-25T21:02:34.845Z,15.70
2022-08-25T21:05:02.619Z,18.48
2022-08-25T21:07:29.405Z,13.27
2022-08-25T21:09:58.547Z,9.90
2022-08-25T21:12:25.212Z,13.57
2022-08-25T21:14:53.904Z,18.20
2022-08-25T21:17:20.519Z,13.88
2022-08-25T21:22:15.913Z,16.08
2022-08-25T21:24:42.495Z,15.27
2022-08-25T21:27:11.249Z,16.92
2022-08-25T21:29:38.650Z,11.52
2022-08-25T21:32:11.694Z,14.15
2022-08-25T21:34:38.215Z,12.85
2022-08-25T21:37:05.418Z,8.85
2022-08-25T21:39:33.171Z,19.48
2022-08-25T21:42:00.657Z,7.18
2022-08-25T21:44:28.638Z,11.93
2022-08-25T21:46:55.278Z,11.02
2022-08-25T21:49:23.342Z,9.82
2022-08-25T21:51:59.149Z,13.85
2022-08-25T21:54:26.327Z,9.30
2022-08-25T21:56:55.953Z,12.07
2022-08-25T21:59:25.282Z,10.73
2022-08-25T22:01:56.533Z,10.52
2022-08-25T22:04:23.146Z,12.70
2022-08-25T22:06:50.502Z,11.82
2022-08-25T22:09:17.456Z,12.13
2022-08-25T22:11:46.004Z,16.65
2022-08-25T22:14:14.184Z,12.30
2022-08-25T22:16:41.009Z,11.73
2022-08-25T22:19:10.561Z,7.38
2022-08-25T22:21:37.707Z,8.77
2022-08-25T22:24:05.749Z,7.05
2022-08-25T22:26:34.196Z,10.57
2022-08-25T22:29:01.151Z,9.55
2022-08-25T22:31:28.131Z,11.73
2022-08-25T22:33:57.752Z,11.20
2022-08-25T22:36:30.744Z,12.25
2022-08-25T22:38:57.803Z,7.57
2022-08-25T22:41:27.132Z,10.95
2022-08-25T22:43:55.597Z,9.90
2022-08-25T22:46:23.534Z,11.85
2022-08-25T22:48:51.521Z,8.68
2022-08-25T22:51:24.485Z,8.52
2022-08-25T22:53:51.767Z,11.15
2022-08-25T22:56:29.691Z,8.85
2022-08-25T22:59:02.655Z,10.15
2022-08-25T23:01:29.392Z,8.20
2022-08-25T23:03:55.950Z,7.10
2022-08-25T23:06:25.095Z,7.55
2022-08-25T23:08:53.771Z,4.90
2022-08-25T23:11:21.915Z,6.20
2022-08-25T23:13:49.661Z,11.70
2022-08-25T23:16:17.268Z,5.32
2022-08-25T23:18:45.030Z,8.63
2022-08-25T23:21:35.054Z,7.53
2022-08-25T23:24:02.118Z,7.63
2022-08-25T23:26:29.429Z,11.00
2022-08-25T23:28:56.247Z,5.15
2022-08-25T23:31:22.778Z,9.02
2022-08-25T23:33:50.942Z,8.63
2022-08-25T23:36:17.918Z,8.35
2022-08-25T23:38:51.741Z,8.27
2022-08-25T23:41:22.552Z,7.68
2022-08-25T23:43:49.610Z,5.65
2022-08-25T23:46:18.381Z,6.07
2022-08-25T23:48:45.007Z,6.97
2022-08-25T23:51:12.639Z,5.70
2022-08-25T23:53:39.403Z,9.68
2022-08-25T23:56:06.396Z,5.60
2022-08-25T23:58:33.050Z,5.85
